Time;durP1;ratioP1;P1;durP2;ratioP2;P2;SDS_P1;SDS_P2;PMS_P1;PMS_P2;Temp;Humidity;BMP_temperature;BMP_pressure;BME280_temperature;BME280_humidity;BME280_pressure;Samples;Min_cycle;Max_cycle;Signal;HPM_P1;HPM_P2
2020/12/30 00:00:54;;;;;;;11.65;6.40;;;8.40;99.90;;;;;;5035579;28;20196;-84
2020/12/30 00:03:20;;;;;;;11.88;7.03;;;8.40;99.90;;;;;;5035331;28;20227;-84
2020/12/30 00:05:46;;;;;;;8.10;6.50;;;8.40;99.90;;;;;;5035470;28;20204;-84
2020/12/30 00:08:13;;;;;;;7.20;5.93;;;8.50;99.90;;;;;;5035319;28;20196;-85
2020/12/30 00:10:39;;;;;;;6.95;6.32;;;8.50;99.90;;;;;;5035523;28;20196;-85
2020/12/30 00:13:06;;;;;;;9.52;6.65;;;8.50;99.90;;;;;;5034373;28;20207;-84
2020/12/30 00:15:32;;;;;;;9.60;6.10;;;8.50;99.90;;;;;;5035141;28;20207;-84
2020/12/30 00:17:59;;;;;;;10.32;5.57;;;8.50;99.90;;;;;;5035340;28;20200;-84
2020/12/30 00:20:25;;;;;;;10.13;6.30;;;8.60;99.90;;;;;;5035246;28;20215;-85
2020/12/30 00:22:52;;;;;;;10.40;6.75;;;8.60;99.90;;;;;;5035212;28;20226;-85
2020/12/30 00:25:18;;;;;;;11.25;7.22;;;8.60;99.90;;;;;;5035121;28;20651;-85
2020/12/30 00:27:45;;;;;;;11.95;6.38;;;8.60;99.90;;;;;;5035287;28;20261;-85
2020/12/30 00:30:13;;;;;;;8.90;5.90;;;8.60;99.90;;;;;;5035303;28;20530;-85
2020/12/30 00:32:39;;;;;;;7.25;6.55;;;8.60;99.90;;;;;;5034707;28;20223;-85
2020/12/30 00:35:07;;;;;;;7.07;5.40;;;8.60;99.90;;;;;;5034967;28;20200;-84
2020/12/30 00:37:33;;;;;;;8.23;5.43;;;8.50;99.90;;;;;;5034953;28;20196;-84
2020/12/30 00:40:00;;;;;;;7.43;5.90;;;8.50;99.90;;;;;;5034799;28;20204;-84
2020/12/30 00:42:29;;;;;;;8.23;5.65;;;8.50;99.90;;;;;;5034665;28;20231;-84
2020/12/30 00:44:55;;;;;;;8.32;5.35;;;8.50;99.90;;;;;;5034707;28;20202;-85
2020/12/30 00:47:22;;;;;;;8.27;5.60;;;8.50;99.90;;;;;;5034742;28;20757;-84
2020/12/30 00:49:48;;;;;;;7.10;5.63;;;8.50;99.90;;;;;;5034497;28;20242;-84
2020/12/30 00:52:15;;;;;;;6.28;5.68;;;8.50;99.90;;;;;;5034491;28;20219;-84
2020/12/30 00:54:41;;;;;;;6.72;6.00;;;8.50;99.90;;;;;;5034605;28;20210;-85
2020/12/30 00:57:07;;;;;;;8.77;6.22;;;8.60;99.90;;;;;;5034521;28;20192;-84
2020/12/30 00:59:33;;;;;;;10.30;5.70;;;8.60;99.90;;;;;;5034391;28;20777;-84
2020/12/30 01:02:00;;;;;;;8.35;5.53;;;8.60;99.90;;;;;;5034440;28;20223;-84
2020/12/30 01:04:26;;;;;;;7.50;6.68;;;8.60;99.90;;;;;;5034326;28;20204;-85
2020/12/30 01:06:53;;;;;;;9.93;5.55;;;8.50;99.90;;;;;;5034313;28;20253;-84
2020/12/30 01:09:21;;;;;;;5.93;5.03;;;8.40;99.90;;;;;;5034193;28;20239;-85
2020/12/30 01:11:47;;;;;;;10.43;7.70;;;8.30;99.90;;;;;;5034132;28;20206;-84
2020/12/30 01:14:14;;;;;;;5.95;5.10;;;8.30;99.90;;;;;;5034283;28;20204;-84
2020/12/30 01:16:40;;;;;;;6.05;5.45;;;8.30;99.90;;;;;;5034157;28;20192;-84
2020/12/30 01:19:07;;;;;;;6.60;6.00;;;8.30;99.90;;;;;;5034331;28;20223;-85
2020/12/30 01:21:39;;;;;;;9.05;6.40;;;8.30;99.90;;;;;;5034217;28;20219;-85
2020/12/30 01:24:05;;;;;;;7.65;6.55;;;8.30;99.90;;;;;;5034011;28;20210;-85
2020/12/30 01:26:32;;;;;;;6.60;5.65;;;8.30;99.90;;;;;;5034280;28;20195;-84
2020/12/30 01:28:58;;;;;;;8.30;6.25;;;8.20;99.90;;;;;;5033886;28;20199;-85
2020/12/30 01:31:27;;;;;;;9.75;6.38;;;8.10;99.90;;;;;;5034185;28;20203;-84
2020/12/30 01:33:53;;;;;;;9.73;7.38;;;8.10;99.90;;;;;;5033866;28;20546;-84
2020/12/30 01:36:19;;;;;;;10.90;5.78;;;8.10;99.90;;;;;;5033989;28;20195;-84
2020/12/30 01:38:45;;;;;;;8.85;6.18;;;8.00;99.90;;;;;;5033718;28;20200;-85
2020/12/30 01:41:12;;;;;;;10.13;6.93;;;8.10;99.90;;;;;;5033919;28;20219;-85
2020/12/30 01:43:39;;;;;;;7.70;6.80;;;8.00;99.90;;;;;;5033667;28;20206;-85
2020/12/30 01:46:05;;;;;;;6.82;6.13;;;8.10;99.90;;;;;;5033533;28;20192;-85
2020/12/30 01:48:34;;;;;;;7.95;6.30;;;8.10;99.90;;;;;;5033556;28;20699;-85
2020/12/30 01:51:00;;;;;;;8.18;6.50;;;8.20;99.90;;;;;;5033990;28;20196;-86
2020/12/30 01:53:27;;;;;;;6.70;5.65;;;8.20;99.90;;;;;;5033658;28;20228;-85
2020/12/30 01:55:54;;;;;;;8.82;7.63;;;8.10;99.90;;;;;;5033517;28;20195;-85
2020/12/30 01:58:21;;;;;;;9.38;5.90;;;8.10;99.90;;;;;;5033418;28;20196;-84
2020/12/30 02:00:49;;;;;;;7.00;6.30;;;8.10;99.90;;;;;;5033742;28;20196;-85
2020/12/30 02:03:15;;;;;;;6.28;5.60;;;8.10;99.90;;;;;;5033298;28;20585;-85
2020/12/30 02:05:43;;;;;;;7.22;5.82;;;8.20;99.90;;;;;;5033482;28;20195;-86
2020/12/30 02:08:11;;;;;;;7.57;5.32;;;8.20;99.90;;;;;;5033455;28;20203;-85
2020/12/30 02:10:37;;;;;;;8.23;6.35;;;8.30;99.90;;;;;;5033573;28;20655;-85
2020/12/30 02:13:05;;;;;;;6.80;6.18;;;8.30;99.90;;;;;;5033316;28;20246;-85
2020/12/30 02:15:33;;;;;;;8.20;6.63;;;8.30;99.90;;;;;;5033368;28;20196;-85
2020/12/30 02:18:01;;;;;;;8.60;6.35;;;8.30;99.90;;;;;;5033397;28;20199;-84
2020/12/30 02:20:30;;;;;;;11.20;6.07;;;8.20;99.90;;;;;;5033410;28;20216;-85
2020/12/30 02:23:01;;;;;;;7.97;6.82;;;8.20;99.90;;;;;;5032798;28;20234;-86
2020/12/30 02:25:28;;;;;;;7.13;6.43;;;8.20;99.90;;;;;;5033519;28;20188;-85
2020/12/30 02:27:54;;;;;;;8.98;7.07;;;8.20;99.90;;;;;;5033228;28;20203;-85
2020/12/30 02:30:21;;;;;;;8.90;6.65;;;8.20;99.90;;;;;;5033301;28;20195;-85
2020/12/30 02:32:47;;;;;;;8.73;7.18;;;8.20;99.90;;;;;;5033148;28;20697;-86
2020/12/30 02:35:16;;;;;;;9.43;7.10;;;8.20;99.90;;;;;;5033210;28;20203;-85
2020/12/30 02:37:42;;;;;;;7.82;6.40;;;8.30;99.90;;;;;;5036966;28;20195;-84
2020/12/30 02:40:08;;;;;;;8.68;7.25;;;8.30;99.90;;;;;;5037269;28;20211;-85
2020/12/30 02:42:35;;;;;;;10.13;6.50;;;8.30;99.90;;;;;;5037052;28;20227;-85
2020/12/30 02:45:05;;;;;;;8.45;6.90;;;8.40;99.90;;;;;;5037232;28;20195;-85
2020/12/30 02:47:32;;;;;;;9.20;6.32;;;8.40;99.90;;;;;;5037403;28;20195;-85
2020/12/30 02:49:59;;;;;;;10.95;7.15;;;8.40;99.90;;;;;;5036756;28;20219;-85
2020/12/30 02:52:26;;;;;;;9.73;8.10;;;8.40;99.90;;;;;;5036987;28;20200;-85
2020/12/30 02:54:52;;;;;;;9.18;6.65;;;8.40;99.90;;;;;;5037023;28;20196;-85
2020/12/30 02:57:19;;;;;;;7.68;6.85;;;8.30;99.90;;;;;;5036724;28;20203;-85
2020/12/30 02:59:46;;;;;;;9.40;7.88;;;8.40;99.90;;;;;;5037230;28;20527;-85
2020/12/30 03:02:13;;;;;;;10.35;7.07;;;8.30;99.90;;;;;;5036844;28;20281;-85
2020/12/30 03:04:39;;;;;;;12.20;7.88;;;8.30;99.90;;;;;;5036712;28;20647;-86
2020/12/30 03:07:05;;;;;;;9.98;8.98;;;8.30;99.90;;;;;;5036813;28;20200;-85
2020/12/30 03:09:32;;;;;;;9.40;7.57;;;8.30;99.90;;;;;;5036642;28;20539;-86
2020/12/30 03:11:58;;;;;;;9.75;7.82;;;8.30;99.90;;;;;;5036573;28;20204;-85
2020/12/30 03:14:24;;;;;;;9.98;7.28;;;8.30;99.90;;;;;;5036436;28;20258;-85
2020/12/30 03:16:51;;;;;;;9.93;7.57;;;8.40;99.90;;;;;;5036285;28;20196;-85
2020/12/30 03:19:17;;;;;;;10.20;7.80;;;8.40;99.90;;;;;;5036324;28;20224;-86
2020/12/30 03:21:43;;;;;;;12.18;7.75;;;8.50;99.90;;;;;;5036325;28;20227;-85
2020/12/30 03:24:10;;;;;;;9.13;7.13;;;8.50;99.90;;;;;;5036320;28;20195;-85
2020/12/30 03:26:36;;;;;;;9.07;7.45;;;8.60;99.90;;;;;;5036417;28;20204;-86
2020/12/30 03:29:03;;;;;;;9.63;7.03;;;8.60;99.90;;;;;;5036533;28;20199;-86
2020/12/30 03:31:29;;;;;;;9.32;7.82;;;8.60;99.90;;;;;;5036536;28;20646;-85
2020/12/30 03:33:56;;;;;;;10.48;6.80;;;8.60;99.90;;;;;;5035912;28;20691;-86
2020/12/30 03:36:23;;;;;;;8.95;7.45;;;8.60;99.90;;;;;;5036048;28;20207;-85
2020/12/30 03:38:49;;;;;;;9.50;8.00;;;8.60;99.90;;;;;;5036177;28;20253;-85
2020/12/30 03:41:16;;;;;;;10.00;7.43;;;8.60;99.90;;;;;;5036059;28;20196;-85
2020/12/30 03:43:42;;;;;;;16.05;8.45;;;8.60;99.90;;;;;;5035919;28;20557;-84
2020/12/30 03:46:08;;;;;;;10.27;8.20;;;8.50;99.90;;;;;;5036025;28;20196;-86
2020/12/30 03:48:35;;;;;;;11.15;7.70;;;8.50;99.90;;;;;;5034656;28;20231;-85
2020/12/30 03:51:02;;;;;;;11.75;8.27;;;8.60;99.90;;;;;;5036134;28;20199;-85
2020/12/30 03:53:28;;;;;;;10.93;7.65;;;8.50;99.90;;;;;;5035780;28;20261;-85
2020/12/30 03:55:54;;;;;;;10.48;8.25;;;8.50;99.90;;;;;;5035776;28;20614;-85
2020/12/30 03:58:21;;;;;;;11.93;8.60;;;8.50;99.90;;;;;;5035844;28;20651;-85
2020/12/30 04:00:47;;;;;;;12.25;8.90;;;8.50;99.90;;;;;;5035805;28;20230;-85
2020/12/30 04:03:13;;;;;;;10.93;8.40;;;8.50;99.90;;;;;;5035476;28;20220;-85
2020/12/30 04:05:39;;;;;;;10.32;8.80;;;8.60;99.90;;;;;;5035646;28;20195;-85
2020/12/30 04:08:07;;;;;;;12.95;8.50;;;8.60;99.90;;;;;;5035205;28;20200;-85
2020/12/30 04:10:33;;;;;;;10.45;8.90;;;8.60;99.90;;;;;;5035535;28;20206;-85
2020/12/30 04:12:59;;;;;;;10.32;9.02;;;8.70;99.90;;;;;;5035392;28;20568;-85
2020/12/30 04:15:25;;;;;;;14.75;9.35;;;8.70;99.90;;;;;;5035328;28;20203;-85
2020/12/30 04:17:51;;;;;;;10.23;9.10;;;8.70;99.90;;;;;;5035170;28;20200;-85
2020/12/30 04:20:17;;;;;;;10.73;8.65;;;8.70;99.90;;;;;;5035327;28;20274;-87
2020/12/30 04:22:44;;;;;;;12.82;8.90;;;8.70;99.90;;;;;;5035339;28;20633;-85
2020/12/30 04:25:11;;;;;;;11.32;9.57;;;8.70;99.90;;;;;;5035337;28;20666;-85
2020/12/30 04:27:37;;;;;;;13.10;9.50;;;8.50;99.90;;;;;;5035308;28;20199;-84
2020/12/30 04:30:04;;;;;;;13.30;10.20;;;8.50;99.90;;;;;;5035320;28;20548;-85
2020/12/30 04:32:30;;;;;;;11.25;8.45;;;8.50;99.90;;;;;;5035078;28;20223;-85
2020/12/30 04:34:57;;;;;;;11.27;9.45;;;8.50;99.90;;;;;;5034961;28;20222;-84
2020/12/30 04:37:23;;;;;;;10.60;8.95;;;8.40;99.90;;;;;;5035169;28;20298;-86
2020/12/30 04:39:49;;;;;;;10.60;9.10;;;8.40;99.90;;;;;;5034697;28;20678;-85
2020/12/30 04:42:20;;;;;;;12.23;8.65;;;8.30;99.90;;;;;;5034811;28;20223;-85
2020/12/30 04:44:51;;;;;;;12.30;9.38;;;8.30;99.90;;;;;;5034812;28;20199;-85
2020/12/30 04:47:19;;;;;;;12.60;9.60;;;8.30;99.90;;;;;;5034902;28;20195;-86
2020/12/30 04:49:45;;;;;;;9.48;8.50;;;8.20;99.90;;;;;;5034647;28;20216;-84
2020/12/30 04:52:15;;;;;;;11.40;9.30;;;8.20;99.90;;;;;;5034570;28;20196;-84
2020/12/30 04:54:43;;;;;;;11.77;8.82;;;8.30;99.90;;;;;;5034375;28;20604;-84
2020/12/30 04:57:14;;;;;;;17.10;11.50;;;8.30;99.90;;;;;;5034311;28;20192;-85
2020/12/30 04:59:42;;;;;;;13.75;9.88;;;8.40;99.90;;;;;;5034142;28;20651;-85
2020/12/30 05:02:10;;;;;;;11.23;9.77;;;8.40;99.90;;;;;;5034475;28;20558;-85
2020/12/30 05:04:38;;;;;;;15.60;9.30;;;8.50;99.90;;;;;;5034476;28;20674;-85
2020/12/30 05:07:09;;;;;;;16.17;10.43;;;8.50;99.90;;;;;;5034232;28;20202;-86
2020/12/30 05:09:37;;;;;;;13.65;11.70;;;8.60;99.90;;;;;;5034557;28;20202;-85
2020/12/30 05:12:10;;;;;;;14.63;11.45;;;8.50;99.90;;;;;;5034260;28;20199;-85
2020/12/30 05:14:36;;;;;;;16.60;12.65;;;8.40;99.90;;;;;;5034213;28;20196;-85
2020/12/30 05:17:04;;;;;;;15.57;12.40;;;8.40;99.90;;;;;;5034323;28;20608;-85
2020/12/30 05:19:31;;;;;;;17.42;14.55;;;8.40;99.90;;;;;;5034157;28;20278;-85
2020/12/30 05:21:57;;;;;;;17.77;12.93;;;8.40;99.90;;;;;;5034006;28;20227;-85
2020/12/30 05:24:24;;;;;;;14.05;11.43;;;8.20;99.90;;;;;;5033948;28;20253;-85
2020/12/30 05:26:51;;;;;;;14.40;11.45;;;8.10;99.90;;;;;;5034247;28;20559;-85
2020/12/30 05:29:17;;;;;;;15.25;10.32;;;8.10;99.90;;;;;;5034008;28;20196;-85
2020/12/30 05:31:49;;;;;;;14.63;9.70;;;8.20;99.90;;;;;;5034035;28;20215;-85
2020/12/30 05:34:18;;;;;;;12.65;9.55;;;8.30;99.90;;;;;;5013234;28;20263;-85
2020/12/30 05:36:45;;;;;;;12.13;9.88;;;8.30;99.90;;;;;;5014123;28;20693;-85
2020/12/30 05:39:20;;;;;;;12.77;10.90;;;8.30;99.90;;;;;;5014261;28;20207;-85
2020/12/30 05:41:46;;;;;;;11.23;8.60;;;8.40;99.90;;;;;;5014161;28;20737;-85
2020/12/30 05:44:19;;;;;;;12.38;9.30;;;8.30;99.90;;;;;;5013984;28;20193;-85
2020/12/30 05:46:46;;;;;;;12.20;10.32;;;8.30;99.90;;;;;;5013956;28;20197;-85
2020/12/30 05:49:34;;;;;;;12.65;10.25;;;8.30;99.90;;;;;;5013859;28;20246;-85
2020/12/30 05:52:11;;;;;;;12.40;10.25;;;8.30;99.90;;;;;;5014054;28;20200;-85
2020/12/30 05:54:37;;;;;;;12.65;10.70;;;8.30;99.90;;;;;;5013947;28;20200;-85
2020/12/30 05:57:22;;;;;;;11.40;10.20;;;8.30;99.90;;;;;;5014003;28;20200;-85
2020/12/30 05:59:50;;;;;;;11.27;9.68;;;8.40;99.90;;;;;;5014074;28;20196;-85
2020/12/30 06:02:16;;;;;;;10.27;9.18;;;8.40;99.90;;;;;;5013667;28;20228;-85
2020/12/30 06:04:43;;;;;;;14.70;9.18;;;8.40;99.90;;;;;;5013721;28;20200;-85
2020/12/30 06:07:13;;;;;;;14.70;10.75;;;8.40;99.90;;;;;;5013768;28;20201;-85
2020/12/30 06:09:40;;;;;;;12.95;9.95;;;8.50;99.90;;;;;;5013889;28;20195;-85
2020/12/30 06:12:07;;;;;;;14.52;10.80;;;8.50;99.90;;;;;;5012913;28;20568;-85
2020/12/30 06:14:34;;;;;;;14.00;10.10;;;8.40;99.90;;;;;;5013511;28;20192;-84
2020/12/30 06:17:02;;;;;;;14.90;10.27;;;8.40;99.90;;;;;;5013640;28;20200;-85
2020/12/30 06:19:29;;;;;;;12.60;10.80;;;8.40;99.90;;;;;;5013598;28;20216;-85
2020/12/30 06:21:58;;;;;;;14.20;10.70;;;8.40;99.90;;;;;;5013463;28;20216;-85
2020/12/30 06:24:25;;;;;;;13.95;10.70;;;8.50;99.90;;;;;;5013532;28;20568;-85
2020/12/30 06:26:51;;;;;;;12.77;10.15;;;8.50;99.90;;;;;;5013572;28;20207;-85
2020/12/30 06:29:18;;;;;;;13.95;10.35;;;8.50;99.90;;;;;;5013482;28;20193;-85
2020/12/30 06:31:46;;;;;;;15.00;10.55;;;8.50;99.90;;;;;;5013571;28;20204;-85
2020/12/30 06:34:13;;;;;;;13.70;10.05;;;8.50;99.90;;;;;;5032253;28;20290;-85
2020/12/30 06:36:40;;;;;;;13.50;10.50;;;8.40;99.90;;;;;;5033426;28;20222;-85
2020/12/30 06:39:23;;;;;;;15.15;11.40;;;8.30;99.90;;;;;;5033309;28;20564;-85
2020/12/30 06:41:57;;;;;;;14.98;10.60;;;8.30;99.90;;;;;;5033150;28;20227;-85
2020/12/30 06:44:36;;;;;;;14.07;10.80;;;8.30;99.90;;;;;;5033171;28;20194;-85
2020/12/30 06:47:03;;;;;;;15.70;11.13;;;8.40;99.90;;;;;;5033301;28;20222;-85
2020/12/30 06:49:29;;;;;;;13.57;10.73;;;8.40;99.90;;;;;;5033170;28;20219;-85
2020/12/30 06:51:55;;;;;;;12.88;10.00;;;8.50;99.90;;;;;;5033086;28;20208;-85
2020/12/30 06:54:42;;;;;;;13.38;9.57;;;8.50;99.90;;;;;;5033092;28;20195;-85
2020/12/30 06:57:09;;;;;;;11.40;9.32;;;8.50;99.90;;;;;;5032907;28;20241;-85
2020/12/30 06:59:36;;;;;;;17.45;10.88;;;8.60;99.90;;;;;;5033186;28;20199;-85
2020/12/30 07:02:03;;;;;;;16.02;10.60;;;8.50;99.90;;;;;;5033069;28;20238;-84
2020/12/30 07:04:30;;;;;;;12.15;10.38;;;8.30;99.90;;;;;;5032968;28;20199;-85
2020/12/30 07:06:57;;;;;;;17.63;10.88;;;8.30;99.90;;;;;;5032939;28;20200;-85
2020/12/30 07:09:32;;;;;;;12.40;10.02;;;8.50;99.90;;;;;;5032960;28;20200;-85
2020/12/30 07:11:59;;;;;;;13.27;9.95;;;8.40;99.90;;;;;;5032920;28;20203;-85
2020/12/30 07:14:26;;;;;;;13.70;10.07;;;8.50;99.90;;;;;;5032668;28;20203;-85
2020/12/30 07:16:54;;;;;;;11.98;9.07;;;8.50;99.90;;;;;;5032859;28;20690;-85
2020/12/30 07:19:22;;;;;;;12.20;9.52;;;8.60;99.90;;;;;;5032704;28;20564;-85
2020/12/30 07:22:00;;;;;;;11.15;9.27;;;8.70;99.90;;;;;;5033350;28;20246;-85
2020/12/30 07:24:29;;;;;;;12.30;10.75;;;8.70;99.90;;;;;;5036245;28;20196;-85
2020/12/30 07:26:59;;;;;;;12.27;9.10;;;8.70;99.90;;;;;;5036322;28;20227;-85
2020/12/30 07:29:27;;;;;;;10.88;9.40;;;8.70;99.90;;;;;;5036231;28;20207;-85
2020/12/30 07:31:56;;;;;;;13.23;9.80;;;8.60;99.90;;;;;;5036328;28;20204;-85
2020/12/30 07:34:24;;;;;;;12.10;8.70;;;8.60;99.90;;;;;;5016511;28;20196;-87
2020/12/30 07:36:51;;;;;;;13.95;10.10;;;8.60;99.90;;;;;;5016471;28;20598;-85
2020/12/30 07:39:26;;;;;;;15.65;10.32;;;8.50;99.90;;;;;;5016173;28;20203;-85
2020/12/30 07:41:52;;;;;;;15.57;11.27;;;8.50;99.90;;;;;;5016223;28;20223;-85
2020/12/30 07:44:20;;;;;;;14.00;10.00;;;8.50;99.90;;;;;;5015999;28;20193;-85
2020/12/30 07:46:46;;;;;;;12.18;9.40;;;8.50;99.90;;;;;;5016112;28;20219;-83
2020/12/30 07:49:14;;;;;;;12.43;9.02;;;8.50;99.90;;;;;;5015880;28;20216;-85
2020/12/30 07:51:48;;;;;;;13.25;10.45;;;8.40;99.90;;;;;;5016323;28;20203;-83
2020/12/30 07:54:16;;;;;;;12.55;9.73;;;8.30;99.90;;;;;;5015995;28;20204;-86
2020/12/30 07:56:42;;;;;;;13.35;9.88;;;8.30;99.90;;;;;;5015993;28;20589;-86
2020/12/30 07:59:08;;;;;;;11.75;9.73;;;8.40;99.90;;;;;;5015806;28;20192;-83
2020/12/30 08:01:35;;;;;;;14.45;9.57;;;8.50;99.90;;;;;;5015860;28;20200;-83
2020/12/30 08:04:10;;;;;;;12.50;9.90;;;8.50;99.90;;;;;;5015637;28;20201;-82
2020/12/30 08:06:44;;;;;;;11.30;9.15;;;8.50;99.90;;;;;;5015858;28;20196;-85
2020/12/30 08:09:11;;;;;;;11.60;9.48;;;8.50;99.90;;;;;;5015957;28;20196;-86
2020/12/30 08:11:47;;;;;;;11.18;9.27;;;8.40;99.90;;;;;;5015685;28;20200;-85
2020/12/30 08:14:13;;;;;;;12.30;9.52;;;8.30;99.90;;;;;;5015638;28;20191;-89
2020/12/30 08:16:40;;;;;;;13.95;9.95;;;8.40;99.90;;;;;;5015472;28;20698;-85
2020/12/30 08:19:06;;;;;;;20.15;13.90;;;8.40;99.90;;;;;;5015430;28;20229;-85
2020/12/30 08:21:32;;;;;;;15.35;10.50;;;8.50;99.90;;;;;;5015503;28;20207;-85
2020/12/30 08:24:06;;;;;;;14.57;9.45;;;8.50;99.90;;;;;;5015495;28;20256;-84
2020/12/30 08:26:35;;;;;;;11.27;9.77;;;8.50;99.90;;;;;;5015480;28;20204;-84
2020/12/30 08:29:02;;;;;;;12.07;9.55;;;8.40;99.90;;;;;;5015541;28;20204;-85
2020/12/30 08:31:41;;;;;;;13.18;10.70;;;8.50;99.90;;;;;;5015484;28;20200;-83
2020/12/30 08:34:10;;;;;;;12.85;9.70;;;8.50;99.90;;;;;;5032766;28;20227;-84
2020/12/30 08:36:42;;;;;;;12.90;10.15;;;8.50;99.90;;;;;;5035276;28;20269;-85
2020/12/30 08:39:10;;;;;;;11.05;8.93;;;8.50;99.90;;;;;;5035234;28;20188;-84
2020/12/30 08:41:51;;;;;;;12.82;7.90;;;8.50;99.90;;;;;;5034758;28;20277;-83
2020/12/30 08:44:20;;;;;;;12.80;9.10;;;8.40;99.90;;;;;;5034853;28;20635;-84
2020/12/30 08:46:49;;;;;;;16.70;9.88;;;8.40;99.90;;;;;;5024826;28;20243;-84
2020/12/30 08:49:18;;;;;;;16.55;10.90;;;8.40;99.90;;;;;;5034120;28;20235;-84
2020/12/30 08:51:45;;;;;;;13.90;10.55;;;8.50;99.90;;;;;;5034096;28;20619;-84
2020/12/30 08:54:14;;;;;;;14.73;10.38;;;8.50;99.90;;;;;;5034701;28;20677;-84
2020/12/30 08:56:42;;;;;;;14.68;10.05;;;8.50;99.90;;;;;;5034595;28;20261;-84
2020/12/30 08:59:08;;;;;;;14.90;10.27;;;8.50;99.90;;;;;;5034808;28;20192;-84
2020/12/30 09:01:34;;;;;;;10.88;8.95;;;8.40;99.90;;;;;;5034525;28;20206;-84
2020/12/30 09:04:11;;;;;;;13.07;10.40;;;8.40;99.90;;;;;;5034532;28;20200;-84
2020/12/30 09:06:39;;;;;;;16.77;9.57;;;8.40;99.90;;;;;;5034568;28;20211;-84
2020/12/30 09:09:10;;;;;;;15.25;10.07;;;8.40;99.90;;;;;;5034149;28;20196;-84
2020/12/30 09:11:37;;;;;;;18.90;11.88;;;8.30;99.90;;;;;;5034304;28;20191;-84
2020/12/30 09:14:19;;;;;;;12.48;9.10;;;8.30;99.90;;;;;;5034105;28;20203;-84
2020/12/30 09:16:57;;;;;;;12.75;9.63;;;8.40;99.90;;;;;;5034255;28;20195;-85
2020/12/30 09:19:24;;;;;;;14.35;9.90;;;8.40;99.90;;;;;;5034265;28;20289;-84
2020/12/30 09:21:51;;;;;;;10.70;9.40;;;8.50;99.90;;;;;;5033854;28;20200;-84
2020/12/30 09:24:18;;;;;;;12.60;9.73;;;8.60;99.90;;;;;;5034118;28;20249;-84
2020/12/30 09:26:44;;;;;;;14.05;9.82;;;8.70;99.90;;;;;;5034055;28;20196;-84
2020/12/30 09:29:18;;;;;;;17.73;11.10;;;8.80;99.90;;;;;;5034206;28;20226;-84
2020/12/30 09:31:55;;;;;;;18.15;11.20;;;8.70;99.90;;;;;;5034006;28;20196;-84
2020/12/30 09:34:25;;;;;;;11.60;9.23;;;8.70;99.90;;;;;;5034073;28;20198;-84
2020/12/30 09:36:57;;;;;;;16.83;10.73;;;8.70;99.90;;;;;;5033967;28;20587;-84
2020/12/30 09:39:24;;;;;;;12.40;8.77;;;8.60;99.90;;;;;;5033815;28;20222;-84
2020/12/30 09:41:58;;;;;;;12.63;10.77;;;8.60;99.90;;;;;;5032324;28;20565;-84
2020/12/30 09:44:25;;;;;;;12.75;10.15;;;8.70;99.90;;;;;;5033996;28;20203;-84
2020/12/30 09:46:51;;;;;;;13.30;9.85;;;8.60;99.90;;;;;;5033886;28;20191;-84
2020/12/30 09:49:18;;;;;;;14.05;10.52;;;8.50;99.90;;;;;;5033548;28;20675;-84
2020/12/30 09:51:45;;;;;;;14.00;10.63;;;8.50;99.90;;;;;;5033687;28;20192;-84
2020/12/30 09:54:12;;;;;;;14.43;11.15;;;8.50;99.90;;;;;;5033628;28;20196;-83
2020/12/30 09:56:38;;;;;;;12.82;10.05;;;8.40;99.90;;;;;;5033611;28;20199;-84
2020/12/30 09:59:04;;;;;;;12.35;9.50;;;8.30;99.90;;;;;;5033437;28;20226;-84
2020/12/30 10:01:31;;;;;;;15.38;9.80;;;8.50;99.90;;;;;;5033730;28;20199;-84
2020/12/30 10:03:58;;;;;;;14.43;10.18;;;8.70;99.90;;;;;;5033416;28;20223;-84
2020/12/30 10:06:24;;;;;;;16.58;11.48;;;8.70;99.90;;;;;;5033548;28;20207;-84
2020/12/30 10:08:50;;;;;;;17.77;10.95;;;8.60;99.90;;;;;;5033472;28;20191;-84
2020/12/30 10:11:19;;;;;;;15.10;11.80;;;8.50;99.90;;;;;;5030102;28;20184;-84
2020/12/30 10:13:45;;;;;;;15.45;10.90;;;8.40;99.90;;;;;;5027998;28;20188;-83
2020/12/30 10:16:11;;;;;;;16.58;10.30;;;8.30;99.90;;;;;;5033212;28;20192;-82
2020/12/30 10:18:38;;;;;;;16.02;10.90;;;8.30;99.90;;;;;;5033065;28;20219;-81
2020/12/30 10:21:04;;;;;;;17.90;11.00;;;8.30;99.90;;;;;;5033192;28;20199;-82
2020/12/30 10:23:30;;;;;;;12.35;9.70;;;8.40;99.90;;;;;;5032642;28;20289;-81
2020/12/30 10:25:56;;;;;;;15.82;11.10;;;8.40;99.90;;;;;;5033124;28;20198;-81
2020/12/30 10:28:23;;;;;;;14.02;11.23;;;8.60;99.90;;;;;;5033056;28;20257;-81
2020/12/30 10:30:50;;;;;;;17.73;11.43;;;8.50;99.90;;;;;;5033228;28;20564;-81
2020/12/30 10:33:16;;;;;;;16.38;12.48;;;8.50;99.90;;;;;;5032561;28;20231;-82
2020/12/30 10:35:42;;;;;;;17.50;12.90;;;8.50;99.90;;;;;;5032781;28;20282;-81
2020/12/30 10:38:08;;;;;;;16.35;12.13;;;8.30;99.90;;;;;;5033164;28;20211;-81
2020/12/30 10:40:36;;;;;;;15.10;12.30;;;8.30;99.90;;;;;;5033013;28;20195;-81
2020/12/30 10:43:03;;;;;;;15.20;11.43;;;8.30;99.90;;;;;;5031667;28;20263;-81
2020/12/30 10:45:31;;;;;;;17.40;11.20;;;8.40;99.90;;;;;;5032909;28;20233;-81
2020/12/30 10:47:57;;;;;;;17.20;11.35;;;8.40;99.90;;;;;;5032782;28;20196;-82
2020/12/30 10:50:23;;;;;;;18.92;13.80;;;8.30;99.90;;;;;;5032898;28;20203;-82
2020/12/30 10:52:50;;;;;;;18.60;13.00;;;8.40;99.90;;;;;;5032921;28;20199;-82
2020/12/30 10:55:18;;;;;;;15.02;10.63;;;8.30;99.90;;;;;;5033024;28;20204;-82
2020/12/30 10:57:44;;;;;;;16.25;12.73;;;8.20;99.90;;;;;;5034822;28;20211;-81
2020/12/30 11:00:10;;;;;;;16.63;11.85;;;8.40;99.90;;;;;;5036570;28;20195;-81
2020/12/30 11:02:37;;;;;;;18.73;14.23;;;8.40;99.90;;;;;;5036420;28;20269;-81
2020/12/30 11:05:04;;;;;;;17.08;12.40;;;8.30;99.90;;;;;;5036549;28;20225;-81
2020/12/30 11:07:30;;;;;;;17.13;12.77;;;8.40;99.90;;;;;;5036493;28;20669;-81
2020/12/30 11:09:56;;;;;;;17.05;12.15;;;8.40;99.90;;;;;;5036488;28;20195;-81
2020/12/30 11:12:22;;;;;;;19.50;12.75;;;8.40;99.90;;;;;;5036370;28;20218;-81
2020/12/30 11:14:48;;;;;;;16.10;12.00;;;8.30;99.90;;;;;;5036380;28;20202;-82
2020/12/30 11:17:15;;;;;;;20.35;13.30;;;8.40;99.90;;;;;;5035922;28;20195;-81
2020/12/30 11:19:42;;;;;;;16.92;11.98;;;8.50;99.90;;;;;;5036072;28;20690;-81
2020/12/30 11:22:08;;;;;;;16.17;11.57;;;8.60;99.90;;;;;;5035240;28;20215;-81
2020/12/30 11:24:34;;;;;;;18.75;12.50;;;8.60;99.90;;;;;;5035836;28;20192;-81
2020/12/30 11:27:00;;;;;;;17.52;13.90;;;8.60;99.90;;;;;;5036298;28;20207;-81
2020/12/30 11:29:26;;;;;;;15.40;12.80;;;8.40;99.90;;;;;;5036086;28;20614;-81
2020/12/30 11:31:53;;;;;;;22.30;13.82;;;8.40;99.90;;;;;;5036116;28;20241;-81
2020/12/30 11:34:19;;;;;;;15.95;12.00;;;8.40;99.90;;;;;;5032746;28;20215;-80
2020/12/30 11:36:46;;;;;;;16.88;12.07;;;8.40;99.90;;;;;;5016087;28;20273;-81
2020/12/30 11:39:12;;;;;;;16.77;13.00;;;8.50;99.90;;;;;;5016111;28;20196;-81
2020/12/30 11:41:39;;;;;;;21.88;13.45;;;8.50;99.90;;;;;;5016282;28;20204;-81
2020/12/30 11:44:05;;;;;;;24.50;13.25;;;8.70;99.90;;;;;;5016155;28;20224;-81
2020/12/30 11:46:31;;;;;;;13.60;11.45;;;8.70;99.90;;;;;;5016119;28;20648;-81
2020/12/30 11:48:58;;;;;;;16.27;12.73;;;8.70;99.90;;;;;;5015663;28;20231;-81
2020/12/30 11:51:24;;;;;;;20.63;13.55;;;8.80;99.90;;;;;;5016106;28;20201;-81
2020/12/30 11:53:51;;;;;;;23.15;13.52;;;8.60;99.90;;;;;;5015915;28;20540;-82
2020/12/30 11:56:21;;;;;;;22.50;13.93;;;8.50;99.90;;;;;;5015963;28;20224;-81
2020/12/30 11:58:47;;;;;;;17.40;11.70;;;8.40;99.90;;;;;;5015803;28;20647;-81
2020/12/30 12:01:13;;;;;;;16.50;13.85;;;8.40;99.90;;;;;;5015929;28;20204;-82
2020/12/30 12:03:40;;;;;;;16.13;13.25;;;8.50;99.90;;;;;;5015594;28;20286;-82
2020/12/30 12:06:06;;;;;;;16.38;12.65;;;8.60;99.90;;;;;;5015653;28;20207;-82
2020/12/30 12:08:32;;;;;;;22.33;14.45;;;8.40;99.90;;;;;;5014686;28;20200;-82
2020/12/30 12:10:59;;;;;;;16.98;12.98;;;8.50;99.90;;;;;;5015612;28;20254;-82
2020/12/30 12:13:26;;;;;;;16.60;12.65;;;8.40;99.90;;;;;;5015533;28;20200;-82
2020/12/30 12:15:52;;;;;;;19.90;12.65;;;8.50;99.90;;;;;;5015396;28;20196;-82
2020/12/30 12:18:18;;;;;;;17.77;12.77;;;8.50;99.90;;;;;;5015399;28;20239;-82
2020/12/30 12:20:44;;;;;;;15.48;11.30;;;8.50;99.90;;;;;;5015334;28;20192;-82
2020/12/30 12:23:10;;;;;;;16.73;12.30;;;8.50;99.90;;;;;;5015050;28;20605;-82
2020/12/30 12:25:37;;;;;;;18.77;12.45;;;8.60;99.90;;;;;;5014969;28;20196;-82
2020/12/30 12:28:04;;;;;;;19.10;13.32;;;8.50;99.90;;;;;;5015335;28;20200;-82
2020/12/30 12:30:30;;;;;;;17.23;12.27;;;8.50;99.90;;;;;;5015133;28;20205;-82
2020/12/30 12:32:56;;;;;;;17.02;11.95;;;8.60;99.90;;;;;;5014966;28;20228;-82
2020/12/30 12:35:22;;;;;;;15.98;12.95;;;8.60;99.90;;;;;;5015206;28;20203;-82
2020/12/30 12:38:05;;;;;;;17.80;12.63;;;8.50;99.90;;;;;;5015086;28;20686;-82
2020/12/30 12:40:31;;;;;;;16.65;12.68;;;8.50;99.90;;;;;;5014608;28;20200;-82
2020/12/30 12:42:58;;;;;;;23.13;13.07;;;8.60;99.90;;;;;;5015090;28;21014;-82
2020/12/30 12:45:25;;;;;;;14.43;12.48;;;8.70;99.90;;;;;;5014945;28;20204;-82
2020/12/30 12:47:51;;;;;;;16.80;11.35;;;8.80;99.90;;;;;;5014866;28;20203;-81